»·PEaware :: FDX3650 KSEA-KGEG

FDX3650 :: KSEA-KGEG

FLIGHT INFORMATION

Flight Status: Arrived
Operator:
Federal Express
More flights by this operator :: More flights under this callsign
Pilot: David C. (16084)
Aircraft: AIRBUS A300B4-600
(A306)
More flights by this aircraft type
Origin: KSEA Seattle-Tacoma Intl
United States
Destination: KGEG Spokane Intl
United States
More flights between these airports :: More routes between these airports
Route: +SEA7 ZADON ZELAK ZIRAN ZOOMR ZOOMR1
File this flight plan on PilotEdge
Remarks:
Altitude:
(Current/Filed)
27,000ft
Speed:
(Current/Filed)
485kts
Departed: 09-Oct-20 11:15 AM
Arrived: 09-Oct-20 11:56 AM
Distance/Time
Traveled:
194nm/0:41
Distance/Time
To Go:
Arrived

Flight Plot

Page will automatically refresh every two minutes.

Flight plan parsing failed; only flown route is shown


Map Options




Map Legend


Flown Route
Filed Route
Departure Airport
Arrival Airport
Navaid (VOR, NDB)
Fix

Horizontal Profiles

Position Reports

Time Latitude Longitude Heading Altitude Ground
Speed
09-Oct-20 10:36 47.460997 -122.302707 180 482ft 0kts
09-Oct-20 10:37 47.460997 -122.302707 180 482ft 0kts
09-Oct-20 10:38 47.460997 -122.302707 180 482ft 0kts
09-Oct-20 10:39 47.460997 -122.302707 180 482ft 0kts
09-Oct-20 10:40 47.460997 -122.302707 180 482ft 0kts
09-Oct-20 10:41 47.460997 -122.302707 180 482ft 0kts
09-Oct-20 10:42 47.460997 -122.302707 180 482ft 0kts
09-Oct-20 10:43 47.460997 -122.302707 180 482ft 0kts
09-Oct-20 10:44 47.460997 -122.302707 180 482ft 0kts
09-Oct-20 10:45 47.460997 -122.302707 180 482ft 0kts
09-Oct-20 10:46 47.460997 -122.302707 180 482ft 0kts
09-Oct-20 10:47 47.460997 -122.302707 180 482ft 0kts
09-Oct-20 10:48 47.460997 -122.302707 180 482ft 0kts
09-Oct-20 10:49 47.460997 -122.302707 180 482ft 0kts
09-Oct-20 10:50 47.460997 -122.302707 180 482ft 0kts
09-Oct-20 10:51 47.460997 -122.302707 180 482ft 0kts
09-Oct-20 10:52 47.460997 -122.302707 180 482ft 0kts
09-Oct-20 10:53 47.460997 -122.302707 180 482ft 0kts
09-Oct-20 10:54 47.460997 -122.302707 180 482ft 0kts
09-Oct-20 10:55 47.460997 -122.302707 180 482ft 0kts
09-Oct-20 10:56 47.460997 -122.302707 180 482ft 0kts
09-Oct-20 10:57 47.460997 -122.302707 180 482ft 0kts
09-Oct-20 10:58 47.460997 -122.302707 180 482ft 0kts
09-Oct-20 10:59 47.460997 -122.302707 180 482ft 0kts
09-Oct-20 11:00 47.460997 -122.302707 180 482ft 0kts
09-Oct-20 11:01 47.460997 -122.302707 180 482ft 0kts
09-Oct-20 11:02 47.460997 -122.302707 180 482ft 0kts
09-Oct-20 11:03 47.460998 -122.302707 180 482ft 0kts
09-Oct-20 11:04 47.461572 -122.302640 193 482ft 2kts
09-Oct-20 11:05 47.461873 -122.302490 205 482ft 0kts
09-Oct-20 11:06 47.461873 -122.302490 205 482ft 0kts
09-Oct-20 11:07 47.461873 -122.302490 205 482ft 0kts
09-Oct-20 11:08 47.461873 -122.302490 205 482ft 0kts
09-Oct-20 11:09 47.461873 -122.302490 205 482ft 0kts
09-Oct-20 11:10 47.461820 -122.302878 273 482ft 5kts
09-Oct-20 11:11 47.461865 -122.305333 273 482ft 10kts
09-Oct-20 11:12 47.463465 -122.306292 337 482ft 0kts
09-Oct-20 11:13 47.463551 -122.306368 325 482ft 2kts
09-Oct-20 11:14 47.459996 -122.307780 180 482ft 68kts
09-Oct-20 11:15 47.413170 -122.307653 180 1753ft 224kts
09-Oct-20 11:16 47.344110 -122.300551 176 4296ft 260kts
09-Oct-20 11:17 47.292354 -122.240004 91 6840ft 285kts
09-Oct-20 11:18 47.339132 -122.143169 45 8960ft 307kts
09-Oct-20 11:19 47.399696 -122.055903 45 8983ft 306kts
09-Oct-20 11:20 47.461048 -121.967693 45 9042ft 304kts
09-Oct-20 11:21 47.511569 -121.863827 61 11423ft 334kts
09-Oct-20 11:22 47.563797 -121.737411 59 13712ft 390kts
09-Oct-20 11:23 47.563914 -121.578761 97 16142ft 404kts
09-Oct-20 11:24 47.558933 -121.408772 93 18674ft 423kts
09-Oct-20 11:25 47.556047 -121.236095 94 21118ft 441kts
09-Oct-20 11:26 47.553026 -121.050185 93 23399ft 465kts
09-Oct-20 11:27 47.549669 -120.856423 92 24703ft 480kts
09-Oct-20 11:28 47.545838 -120.655791 92 26260ft 492kts
09-Oct-20 11:29 47.541500 -120.450083 92 26892ft 513kts
09-Oct-20 11:30 47.532405 -120.245529 95 26883ft 520kts
09-Oct-20 11:31 47.522158 -120.031373 95 26884ft 521kts
09-Oct-20 11:32 47.511941 -119.818116 94 26903ft 521kts
09-Oct-20 11:33 47.501374 -119.604345 94 26915ft 521kts
09-Oct-20 11:34 47.490393 -119.390754 94 26916ft 521kts
09-Oct-20 11:35 47.479390 -119.183576 95 26914ft 521kts
09-Oct-20 11:36 47.467867 -118.975708 95 24763ft 490kts
09-Oct-20 11:37 47.456743 -118.782920 95 20989ft 459kts
09-Oct-20 11:38 47.445894 -118.600135 95 17003ft 434kts
09-Oct-20 11:39 47.435573 -118.431490 95 14295ft 388kts
09-Oct-20 11:40 47.451840 -118.278988 64 12830ft 387kts
09-Oct-20 11:41 47.494422 -118.145255 64 11700ft 342kts
09-Oct-20 11:42 47.534255 -118.022056 64 10690ft 316kts
09-Oct-20 11:43 47.572795 -117.905311 64 9266ft 315kts
09-Oct-20 11:44 47.611634 -117.790374 63 7748ft 299kts
09-Oct-20 11:45 47.658153 -117.693113 53 6964ft 269kts
09-Oct-20 11:46 47.700208 -117.609819 53 6879ft 252kts
09-Oct-20 11:47 47.739130 -117.533196 53 5553ft 218kts
09-Oct-20 11:48 47.775579 -117.461971 53 4986ft 213kts
09-Oct-20 11:49 47.793406 -117.384755 125 4702ft 205kts
09-Oct-20 11:50 47.753794 -117.349325 212 4021ft 181kts
09-Oct-20 11:51 47.716080 -117.399484 213 3978ft 182kts
09-Oct-20 11:52 47.678634 -117.447584 224 3718ft 174kts
09-Oct-20 11:53 47.646095 -117.495800 223 2841ft 165kts
09-Oct-20 11:54 47.617268 -117.539234 225 2396ft 83kts
09-Oct-20 11:55 47.614280 -117.546545 317 2396ft 0kts
09-Oct-20 11:56 47.614996 -117.546697 38 2396ft 9kts
09-Oct-20 11:57 47.618420 -117.541570 45 2396ft 25kts
09-Oct-20 11:58 47.625242 -117.531244 47 2395ft 46kts
09-Oct-20 11:59 47.628247 -117.528572 340 2396ft 0kts
09-Oct-20 12:00 47.628247 -117.528572 340 2396ft 0kts
09-Oct-20 12:01 47.628247 -117.528572 340 2396ft 0kts

Navigation Log

Ident Type
Flight plan parsing failed, navigation log unavailable